Time;durP1;ratioP1;P1;durP2;ratioP2;P2;SDS_P1;SDS_P2;PMS_P1;PMS_P2;Temp;Humidity;BMP_temperature;BMP_pressure;BME280_temperature;BME280_humidity;BME280_pressure;Samples;Min_cycle;Max_cycle;Signal;HPM_P1;HPM_P2
2021/05/07 00:01:41;;;;;;;8.88;5.60;;;3.40;99.90;;;;;;5021485;28;20116;-74
2021/05/07 00:04:08;;;;;;;7.40;4.90;;;3.40;99.90;;;;;;5016652;28;20641;-74
2021/05/07 00:06:34;;;;;;;7.47;4.75;;;3.40;99.90;;;;;;5019786;28;20037;-74
2021/05/07 00:09:05;;;;;;;6.13;4.63;;;3.40;99.90;;;;;;5024364;28;20025;-75
2021/05/07 00:11:33;;;;;;;7.90;5.57;;;3.30;99.90;;;;;;5014063;28;20046;-74
2021/05/07 00:13:59;;;;;;;10.43;5.90;;;3.30;99.90;;;;;;5025216;28;20033;-74
2021/05/07 00:16:27;;;;;;;;;;;3.30;99.90;;;;;;5015021;28;20108;-75
2021/05/07 00:18:53;;;;;;;8.75;5.82;;;3.40;99.90;;;;;;5026580;28;19971;-74
2021/05/07 00:21:18;;;;;;;15.98;6.82;;;3.40;99.90;;;;;;5029494;28;20042;-75
2021/05/07 00:23:44;;;;;;;8.43;6.03;;;3.40;99.90;;;;;;5042646;28;20041;-74
2021/05/07 00:26:11;;;;;;;9.75;6.90;;;3.40;99.90;;;;;;5025543;28;20048;-75
2021/05/07 00:28:37;;;;;;;8.93;6.68;;;3.40;99.90;;;;;;5018873;28;20033;-74
2021/05/07 00:31:03;;;;;;;;;;;3.50;99.90;;;;;;5021520;28;20048;-74
2021/05/07 00:33:38;;;;;;;10.27;6.68;;;3.50;99.90;;;;;;5026227;28;19916;-75
2021/05/07 00:36:04;;;;;;;8.63;6.57;;;3.50;99.90;;;;;;5027213;28;20132;-74
2021/05/07 00:38:30;;;;;;;;;;;3.50;99.90;;;;;;5028593;28;20056;-73
2021/05/07 00:40:56;;;;;;;9.68;5.97;;;3.50;99.90;;;;;;5026637;28;20275;-74
2021/05/07 00:43:21;;;;;;;7.57;6.38;;;3.50;99.90;;;;;;5024899;28;20053;-75
2021/05/07 00:45:47;;;;;;;10.50;6.05;;;3.40;99.90;;;;;;5010540;28;20095;-75
2021/05/07 00:48:16;;;;;;;9.43;6.25;;;3.40;99.90;;;;;;5025177;28;20042;-75
2021/05/07 00:50:43;;;;;;;9.23;6.57;;;3.40;99.90;;;;;;5040404;28;20030;-75
2021/05/07 00:53:10;;;;;;;8.75;6.32;;;3.40;99.90;;;;;;5017127;28;20102;-74
2021/05/07 00:55:37;;;;;;;9.23;6.18;;;3.40;99.90;;;;;;5020257;28;20038;-75
2021/05/07 00:58:03;;;;;;;9.00;6.30;;;3.50;99.90;;;;;;5025274;28;20038;-75
2021/05/07 01:00:32;;;;;;;7.18;5.65;;;3.40;99.90;;;;;;5025799;28;20033;-74
2021/05/07 01:03:02;;;;;;;8.38;6.60;;;3.40;99.90;;;;;;5017249;28;20140;-74
2021/05/07 01:05:28;;;;;;;10.00;6.15;;;3.40;99.90;;;;;;5040123;28;20034;-74
2021/05/07 01:07:54;;;;;;;8.45;6.20;;;3.30;99.90;;;;;;5028100;28;20038;-74
2021/05/07 01:10:21;;;;;;;7.43;5.70;;;3.30;99.90;;;;;;5027511;28;20048;-74
2021/05/07 01:12:47;;;;;;;9.30;6.15;;;3.30;99.90;;;;;;5017602;28;20069;-74
2021/05/07 01:15:14;;;;;;;10.02;5.70;;;3.30;99.90;;;;;;5027598;28;20034;-74
2021/05/07 01:17:45;;;;;;;7.47;5.45;;;3.20;99.90;;;;;;5031405;28;20112;-73
2021/05/07 01:20:32;;;;;;;8.52;6.20;;;3.20;99.90;;;;;;5033135;28;20045;-74
2021/05/07 01:23:06;;;;;;;8.57;5.72;;;3.20;99.90;;;;;;5027490;28;20471;-75
2021/05/07 01:25:37;;;;;;;7.32;5.50;;;3.20;99.90;;;;;;5031709;28;20037;-75
2021/05/07 01:28:09;;;;;;;7.25;5.50;;;3.30;99.90;;;;;;5037480;28;20532;-75
2021/05/07 01:30:40;;;;;;;9.07;6.00;;;3.30;99.90;;;;;;5031600;28;20045;-73
2021/05/07 01:33:10;;;;;;;7.75;5.63;;;3.30;99.90;;;;;;5031474;28;20402;-74
2021/05/07 01:35:36;;;;;;;8.85;5.65;;;3.40;99.90;;;;;;5026964;28;20041;-74
2021/05/07 01:38:06;;;;;;;;;;;3.40;99.90;;;;;;5032848;28;20063;-75
2021/05/07 01:40:34;;;;;;;8.10;5.80;;;3.40;99.90;;;;;;5032600;28;20328;-74
2021/05/07 01:43:00;;;;;;;6.53;5.18;;;3.50;99.90;;;;;;5024568;28;20088;-74
2021/05/07 01:45:28;;;;;;;6.65;5.53;;;3.40;99.90;;;;;;5023204;28;20077;-73
2021/05/07 01:47:55;;;;;;;7.20;5.72;;;3.50;99.90;;;;;;5033321;28;20483;-73
2021/05/07 01:50:32;;;;;;;9.27;5.75;;;3.40;99.90;;;;;;5030021;28;20037;-74
2021/05/07 01:52:59;;;;;;;7.97;5.85;;;3.40;99.90;;;;;;5030842;28;20179;-74
2021/05/07 01:55:27;;;;;;;6.95;5.53;;;3.50;99.90;;;;;;5028482;28;20041;-74
2021/05/07 01:57:53;;;;;;;7.57;5.40;;;3.40;99.90;;;;;;5032634;28;20064;-74
2021/05/07 02:00:21;;;;;;;;;;;3.40;99.90;;;;;;5029903;28;20137;-74
2021/05/07 02:02:47;;;;;;;6.78;5.40;;;3.30;99.90;;;;;;5031364;28;19921;-75
2021/05/07 02:05:17;;;;;;;7.65;5.38;;;3.30;99.90;;;;;;5029247;28;20079;-74
2021/05/07 02:07:44;;;;;;;7.40;4.95;;;3.30;99.90;;;;;;5036441;28;20049;-74
2021/05/07 02:10:12;;;;;;;5.20;4.20;;;3.30;99.90;;;;;;5031182;28;20033;-74
2021/05/07 02:12:39;;;;;;;4.40;3.53;;;3.30;99.90;;;;;;5027598;28;20087;-74
2021/05/07 02:15:11;;;;;;;6.43;3.60;;;3.20;99.90;;;;;;5030559;28;20163;-74
2021/05/07 02:17:37;;;;;;;6.63;3.47;;;3.20;99.90;;;;;;5027193;28;20320;-74
2021/05/07 02:20:04;;;;;;;3.95;3.28;;;3.20;99.90;;;;;;5041737;28;20057;-75
2021/05/07 02:22:30;;;;;;;3.38;2.53;;;3.10;99.90;;;;;;5024850;28;20030;-74
2021/05/07 02:24:56;;;;;;;4.03;2.53;;;3.10;99.90;;;;;;5028969;28;20047;-75
2021/05/07 02:27:22;;;;;;;3.28;2.40;;;3.10;99.90;;;;;;5030832;28;20084;-74
2021/05/07 02:29:48;;;;;;;3.55;2.10;;;3.10;99.90;;;;;;5015779;28;20164;-74
2021/05/07 02:32:14;;;;;;;2.85;2.30;;;3.10;99.90;;;;;;5023519;28;20033;-74
2021/05/07 02:34:40;;;;;;;2.50;1.77;;;3.10;99.90;;;;;;5030009;28;20041;-75
2021/05/07 02:37:05;;;;;;;2.17;1.60;;;3.10;99.90;;;;;;5029532;28;20031;-75
2021/05/07 02:39:31;;;;;;;3.00;1.67;;;3.10;99.90;;;;;;5032325;28;20057;-73
2021/05/07 02:41:57;;;;;;;;;;;3.10;99.90;;;;;;5024412;28;20396;-74
2021/05/07 02:44:23;;;;;;;2.28;1.45;;;3.20;99.90;;;;;;5024353;28;20000;-75
2021/05/07 02:46:49;;;;;;;2.05;1.60;;;3.20;99.90;;;;;;5031241;28;20033;-74
2021/05/07 02:49:15;;;;;;;3.20;1.60;;;3.20;99.90;;;;;;5019876;28;20042;-74
2021/05/07 02:51:41;;;;;;;2.30;1.65;;;3.20;99.90;;;;;;5034755;28;20034;-74
2021/05/07 02:54:06;;;;;;;2.90;1.80;;;3.20;99.90;;;;;;5038340;28;20490;-75
2021/05/07 02:56:33;;;;;;;3.42;2.00;;;3.30;99.90;;;;;;5025256;28;20098;-73
2021/05/07 02:58:59;;;;;;;;;;;3.30;99.90;;;;;;5021873;28;20041;-74
2021/05/07 03:01:25;;;;;;;2.55;1.85;;;3.30;99.90;;;;;;5027132;28;20004;-75
2021/05/07 03:03:51;;;;;;;3.65;2.10;;;3.30;99.90;;;;;;5029438;28;20109;-75
2021/05/07 03:06:18;;;;;;;2.70;2.10;;;3.30;99.90;;;;;;5013236;28;20486;-74
2021/05/07 03:08:44;;;;;;;6.68;2.53;;;3.30;99.90;;;;;;5013087;28;20041;-74
2021/05/07 03:11:10;;;;;;;3.67;2.20;;;3.30;99.90;;;;;;5034281;28;20471;-74
2021/05/07 03:13:36;;;;;;;4.43;1.88;;;3.30;99.90;;;;;;5028395;28;20065;-75
2021/05/07 03:16:03;;;;;;;6.03;2.38;;;3.30;99.90;;;;;;5023876;28;20064;-74
2021/05/07 03:18:28;;;;;;;3.95;2.22;;;3.30;99.90;;;;;;5023690;28;20052;-74
2021/05/07 03:20:55;;;;;;;2.97;2.45;;;3.30;99.90;;;;;;5023601;28;20034;-75
2021/05/07 03:23:21;;;;;;;3.17;2.40;;;3.30;99.90;;;;;;5030121;28;20034;-74
2021/05/07 03:25:50;;;;;;;7.00;2.90;;;3.30;99.90;;;;;;5041884;28;20068;-74
2021/05/07 03:28:15;;;;;;;3.92;2.83;;;3.30;99.90;;;;;;5028199;28;20088;-75
2021/05/07 03:30:41;;;;;;;3.58;2.20;;;3.30;99.90;;;;;;5029845;28;20061;-74
2021/05/07 03:33:07;;;;;;;5.07;2.45;;;3.70;99.90;;;;;;5026529;28;20041;-74
2021/05/07 03:35:34;;;;;;;4.53;2.42;;;3.40;99.90;;;;;;5030858;28;20034;-73
2021/05/07 03:38:02;;;;;;;4.40;3.10;;;3.40;99.90;;;;;;5020165;28;20478;-73
2021/05/07 03:40:27;;;;;;;6.40;2.55;;;3.50;99.90;;;;;;5030391;28;20038;-74
2021/05/07 03:42:53;;;;;;;3.72;2.70;;;3.50;99.90;;;;;;5028495;28;20041;-74
2021/05/07 03:45:19;;;;;;;;;;;3.50;99.90;;;;;;5017285;28;20057;-73
2021/05/07 03:47:45;;;;;;;3.55;2.30;;;3.50;99.90;;;;;;5029608;28;20311;-75
2021/05/07 03:50:12;;;;;;;3.95;2.53;;;3.50;99.90;;;;;;5029519;28;20325;-75
2021/05/07 03:52:40;;;;;;;3.97;2.30;;;3.50;99.90;;;;;;5028915;28;20475;-74
2021/05/07 03:55:08;;;;;;;3.40;2.35;;;3.50;99.90;;;;;;5022722;28;20033;-74
2021/05/07 03:57:34;;;;;;;4.15;2.28;;;3.50;99.90;;;;;;5029708;28;20041;-75
2021/05/07 04:00:00;;;;;;;4.80;2.47;;;3.50;99.90;;;;;;5025393;28;20476;-75
2021/05/07 04:02:26;;;;;;;3.33;2.53;;;3.50;99.90;;;;;;5039641;28;20041;-75
2021/05/07 04:04:53;;;;;;;4.38;2.30;;;3.60;99.90;;;;;;5015670;28;20038;-74
2021/05/07 04:07:21;;;;;;;4.95;2.47;;;3.60;99.90;;;;;;5014040;28;20065;-74
2021/05/07 04:15:01;;;;;;;4.25;2.30;;;3.70;99.90;;;;;;5023511;28;20029;-74
2021/05/07 04:17:29;;;;;;;3.92;2.63;;;3.70;99.90;;;;;;5025829;28;20034;-74
2021/05/07 04:19:55;;;;;;;3.35;2.30;;;3.70;99.90;;;;;;5023771;28;20046;-74
2021/05/07 04:22:21;;;;;;;3.00;2.50;;;3.70;99.90;;;;;;5039226;28;20038;-75
2021/05/07 04:24:46;;;;;;;3.85;2.72;;;3.60;99.90;;;;;;5019603;28;20050;-75
2021/05/07 04:27:13;;;;;;;3.80;2.15;;;3.60;99.90;;;;;;5034380;28;20037;-74
2021/05/07 04:29:41;;;;;;;4.03;2.30;;;3.60;99.90;;;;;;5022715;28;20129;-75
2021/05/07 04:32:07;;;;;;;6.50;2.60;;;3.50;99.90;;;;;;5019717;28;20165;-74
2021/05/07 04:34:34;;;;;;;4.00;2.20;;;3.50;99.90;;;;;;5024180;28;20455;-74
2021/05/07 04:37:00;;;;;;;3.90;2.03;;;3.50;99.90;;;;;;5024553;28;20044;-73
2021/05/07 04:39:26;;;;;;;2.75;2.08;;;3.40;99.90;;;;;;5024599;28;20046;-74
2021/05/07 04:41:52;;;;;;;4.65;2.10;;;3.40;99.90;;;;;;5023334;28;20096;-74
2021/05/07 04:44:18;;;;;;;3.13;2.00;;;3.50;99.90;;;;;;5030099;28;20168;-75
2021/05/07 04:46:50;;;;;;;3.28;2.17;;;3.50;99.90;;;;;;5027241;28;20033;-75
2021/05/07 04:49:16;;;;;;;2.60;2.20;;;3.50;99.90;;;;;;5027042;28;20095;-74
2021/05/07 04:51:45;;;;;;;2.88;2.08;;;3.40;99.90;;;;;;5005762;28;20042;-74
2021/05/07 04:54:11;;;;;;;2.78;1.70;;;3.50;99.90;;;;;;5031631;28;20111;-74
2021/05/07 04:56:37;;;;;;;2.90;2.08;;;3.60;99.90;;;;;;5013230;28;20074;-75
2021/05/07 04:59:03;;;;;;;4.07;2.25;;;3.60;99.90;;;;;;5015608;28;20113;-73
2021/05/07 05:01:28;;;;;;;3.88;1.95;;;3.60;99.90;;;;;;5020553;28;20479;-74
2021/05/07 05:03:54;;;;;;;3.40;2.10;;;3.70;99.90;;;;;;5028271;28;20124;-74
2021/05/07 05:06:20;;;;;;;3.75;2.15;;;3.70;99.90;;;;;;5042308;28;20129;-74
2021/05/07 05:08:46;;;;;;;4.28;2.03;;;3.70;99.90;;;;;;5041255;28;20042;-74
2021/05/07 05:11:12;;;;;;;3.33;2.03;;;3.70;99.90;;;;;;5038533;28;20434;-74
2021/05/07 05:13:38;;;;;;;2.95;2.10;;;3.70;99.90;;;;;;5028973;28;20033;-73
2021/05/07 05:16:04;;;;;;;3.13;1.95;;;3.80;99.90;;;;;;5026060;28;20512;-75
2021/05/07 05:18:33;;;;;;;2.17;1.50;;;3.90;99.90;;;;;;5021102;28;20077;-75
2021/05/07 05:21:01;;;;;;;2.85;1.63;;;3.90;99.90;;;;;;5030487;28;20486;-75
2021/05/07 05:23:28;;;;;;;2.60;1.63;;;4.20;99.90;;;;;;5034553;28;20108;-73
2021/05/07 05:25:54;;;;;;;2.50;1.83;;;4.40;99.90;;;;;;5041639;28;20038;-75
2021/05/07 05:28:20;;;;;;;2.50;1.88;;;4.70;99.90;;;;;;5026403;28;20065;-75
2021/05/07 05:30:47;;;;;;;3.88;1.80;;;4.90;99.90;;;;;;5030069;28;20487;-76
2021/05/07 05:33:13;;;;;;;2.60;1.70;;;5.00;99.90;;;;;;5025418;28;20502;-75
2021/05/07 05:35:39;;;;;;;2.65;1.80;;;5.00;99.90;;;;;;5027239;28;20037;-76
2021/05/07 05:38:05;;;;;;;2.88;1.80;;;5.20;99.90;;;;;;5026947;28;20033;-76
2021/05/07 05:40:31;;;;;;;3.50;1.88;;;5.10;99.90;;;;;;5028016;28;20038;-74
2021/05/07 05:42:57;;;;;;;;;;;5.10;99.90;;;;;;5017552;28;20541;-75
2021/05/07 05:45:24;;;;;;;2.72;1.60;;;5.10;99.90;;;;;;5026149;28;19921;-75
2021/05/07 05:48:14;;;;;;;2.42;1.80;;;5.10;99.90;;;;;;5025740;28;20060;-75
2021/05/07 05:50:45;;;;;;;2.53;1.70;;;5.10;99.90;;;;;;5020526;28;20064;-76
2021/05/07 05:53:11;;;;;;;3.13;2.03;;;5.20;99.90;;;;;;5028009;28;20135;-76
2021/05/07 05:55:40;;;;;;;3.45;1.98;;;5.20;99.90;;;;;;5027892;28;20049;-75
2021/05/07 05:58:06;;;;;;;3.67;2.50;;;5.30;99.90;;;;;;5019289;28;20040;-76
2021/05/07 06:00:32;;;;;;;3.35;2.45;;;5.40;99.90;;;;;;5028310;28;20042;-76
2021/05/07 06:02:58;;;;;;;3.35;2.47;;;5.50;99.90;;;;;;5014211;28;20056;-76
2021/05/07 06:05:26;;;;;;;3.65;2.97;;;5.60;99.90;;;;;;5022980;28;20427;-75
2021/05/07 06:07:52;;;;;;;4.38;2.72;;;5.60;99.90;;;;;;5034833;28;20398;-75
2021/05/07 06:10:20;;;;;;;4.13;2.60;;;5.60;99.90;;;;;;5019656;28;20037;-76
2021/05/07 06:12:47;;;;;;;3.60;2.78;;;5.60;99.90;;;;;;5025358;28;20109;-75
2021/05/07 06:15:14;;;;;;;3.60;2.83;;;5.60;99.90;;;;;;5025597;28;20042;-76
2021/05/07 06:17:41;;;;;;;4.10;2.80;;;5.60;99.90;;;;;;5020757;28;20041;-75
2021/05/07 06:20:09;;;;;;;4.93;2.95;;;5.70;99.90;;;;;;5030124;28;20037;-75
2021/05/07 06:22:36;;;;;;;3.03;2.50;;;5.80;99.90;;;;;;5028254;28;20060;-75
2021/05/07 06:25:08;;;;;;;4.07;2.50;;;5.80;99.90;;;;;;5023514;28;20030;-76
2021/05/07 06:27:34;;;;;;;4.35;2.40;;;5.90;99.90;;;;;;5039462;28;20033;-77
2021/05/07 06:30:00;;;;;;;4.07;2.70;;;6.00;99.90;;;;;;5019080;28;20127;-74
2021/05/07 06:32:26;;;;;;;3.45;2.35;;;6.10;99.90;;;;;;5044807;28;20529;-75
2021/05/07 06:34:51;;;;;;;3.65;2.28;;;6.10;99.90;;;;;;5022779;28;20045;-75
2021/05/07 06:37:17;;;;;;;4.22;2.78;;;6.20;99.90;;;;;;5029672;28;20045;-76
2021/05/07 06:39:44;;;;;;;5.95;2.80;;;6.40;99.90;;;;;;5029342;28;20049;-75
2021/05/07 06:42:10;;;;;;;4.68;2.63;;;6.50;99.90;;;;;;5028255;28;20057;-75
2021/05/07 06:44:36;;;;;;;3.30;2.35;;;6.50;99.90;;;;;;5026269;28;20030;-75
2021/05/07 06:47:02;;;;;;;3.35;2.60;;;6.60;99.90;;;;;;5029020;28;20539;-75
2021/05/07 06:49:28;;;;;;;4.28;2.67;;;6.60;99.90;;;;;;5030107;28;20420;-75
2021/05/07 06:51:54;;;;;;;5.30;2.80;;;6.60;99.90;;;;;;5031386;28;20064;-75
2021/05/07 06:54:27;;;;;;;3.58;2.45;;;6.70;99.90;;;;;;5021883;28;20477;-76
2021/05/07 06:56:57;;;;;;;3.40;2.53;;;7.00;99.90;;;;;;5046838;28;20041;-76
2021/05/07 06:59:27;;;;;;;3.35;2.45;;;6.70;99.90;;;;;;5030806;28;20040;-76
2021/05/07 07:01:54;;;;;;;4.32;2.50;;;6.70;99.90;;;;;;5030890;28;20128;-77
2021/05/07 07:04:20;;;;;;;4.05;2.80;;;6.70;99.90;;;;;;5019485;28;20037;-75
2021/05/07 07:06:46;;;;;;;4.35;2.50;;;6.70;99.90;;;;;;5021814;28;20034;-77
2021/05/07 07:09:12;;;;;;;3.72;2.42;;;6.70;99.90;;;;;;5032474;28;20514;-76
2021/05/07 07:11:39;;;;;;;2.80;2.50;;;6.70;99.90;;;;;;5043259;28;20643;-78
2021/05/07 07:14:06;;;;;;;3.65;2.75;;;6.80;99.90;;;;;;5028284;28;20474;-77
2021/05/07 07:16:32;;;;;;;6.88;2.40;;;6.80;99.90;;;;;;5016174;28;20042;-75
2021/05/07 07:18:58;;;;;;;5.40;2.88;;;6.90;99.90;;;;;;5022852;28;20069;-77
2021/05/07 07:21:24;;;;;;;3.05;2.40;;;7.00;99.90;;;;;;5025685;28;20053;-75
2021/05/07 07:23:50;;;;;;;3.97;2.70;;;7.10;99.90;;;;;;5046739;28;20037;-77
2021/05/07 07:26:16;;;;;;;3.00;2.40;;;7.10;99.90;;;;;;5034661;28;20048;-77
2021/05/07 07:28:43;;;;;;;4.90;2.55;;;7.20;99.90;;;;;;5025613;28;20045;-77
2021/05/07 07:31:10;;;;;;;4.18;2.80;;;7.20;99.90;;;;;;5038404;28;20072;-75
2021/05/07 07:33:35;;;;;;;;;;;7.30;99.90;;;;;;5027875;28;20112;-76
2021/05/07 07:36:01;;;;;;;4.25;2.83;;;7.80;99.90;;;;;;5016127;28;20011;-75
2021/05/07 07:38:27;;;;;;;3.63;3.00;;;7.40;99.90;;;;;;5029729;28;20048;-76
2021/05/07 07:40:53;;;;;;;5.78;2.95;;;7.50;99.90;;;;;;5031244;28;20033;-76
2021/05/07 07:43:21;;;;;;;;;;;7.50;99.90;;;;;;5025609;28;20118;-74
2021/05/07 07:45:50;;;;;;;4.70;2.58;;;7.60;99.90;;;;;;5020449;28;20301;-75
2021/05/07 07:48:16;;;;;;;2.75;1.95;;;7.60;99.90;;;;;;5038308;28;20069;-75
2021/05/07 07:50:43;;;;;;;;;;;7.80;99.90;;;;;;5035506;28;20045;-75
2021/05/07 07:53:10;;;;;;;3.63;2.10;;;7.80;99.90;;;;;;5027992;28;19917;-76
2021/05/07 07:55:37;;;;;;;3.15;2.53;;;7.80;99.90;;;;;;5031188;28;20041;-76
2021/05/07 07:58:04;;;;;;;3.65;2.88;;;7.80;99.90;;;;;;5029381;28;20042;-77
2021/05/07 08:00:30;;;;;;;3.90;2.60;;;7.80;99.90;;;;;;5016244;28;20041;-76
2021/05/07 08:02:57;;;;;;;3.38;2.38;;;8.00;99.90;;;;;;5018638;28;20095;-76
2021/05/07 08:05:23;;;;;;;5.20;2.92;;;8.00;99.90;;;;;;5028019;28;20590;-76
2021/05/07 08:07:50;;;;;;;5.88;3.33;;;8.10;99.90;;;;;;5030072;28;20041;-76
2021/05/07 08:10:18;;;;;;;5.82;3.30;;;8.10;99.90;;;;;;5030867;28;20077;-75
2021/05/07 08:12:46;;;;;;;4.55;3.30;;;8.20;99.90;;;;;;5030985;28;20052;-76
2021/05/07 08:15:12;;;;;;;4.10;3.15;;;8.40;99.90;;;;;;5029844;28;20144;-75
2021/05/07 08:17:38;;;;;;;4.47;3.00;;;8.50;99.90;;;;;;5010962;28;20092;-75
2021/05/07 08:20:05;;;;;;;4.75;3.50;;;8.70;99.90;;;;;;5022465;28;20046;-77
2021/05/07 08:22:32;;;;;;;5.10;3.42;;;8.90;99.90;;;;;;5030416;28;20524;-73
2021/05/07 08:24:57;;;;;;;5.03;3.00;;;9.00;99.90;;;;;;5028954;28;20042;-73
2021/05/07 08:27:24;;;;;;;3.78;3.03;;;9.30;99.90;;;;;;5040467;28;20096;-75
2021/05/07 08:29:50;;;;;;;3.83;2.58;;;9.50;99.90;;;;;;5021701;28;20037;-75
2021/05/07 08:32:17;;;;;;;3.80;2.63;;;9.50;99.40;;;;;;5031069;28;20049;-76
2021/05/07 08:34:46;;;;;;;2.65;2.00;;;9.30;98.30;;;;;;5027542;28;20088;-75
2021/05/07 08:37:13;;;;;;;3.38;1.92;;;9.00;96.40;;;;;;5024765;28;20033;-75
2021/05/07 08:39:39;;;;;;;4.45;2.25;;;8.60;97.90;;;;;;5022115;28;20487;-76
2021/05/07 08:42:12;;;;;;;3.40;1.80;;;8.60;97.50;;;;;;5029897;28;20079;-75
2021/05/07 08:44:38;;;;;;;3.47;2.00;;;8.60;98.20;;;;;;5041890;28;20040;-75
2021/05/07 08:47:05;;;;;;;3.00;2.20;;;8.80;98.40;;;;;;5023196;28;20103;-74
2021/05/07 08:49:31;;;;;;;2.78;1.80;;;9.10;96.70;;;;;;5039813;28;20045;-74
2021/05/07 08:52:00;;;;;;;3.85;1.98;;;9.30;95.30;;;;;;5028029;28;20112;-77
2021/05/07 08:54:28;;;;;;;3.03;1.70;;;9.30;92.90;;;;;;5028955;28;20112;-76
2021/05/07 08:56:55;;;;;;;3.17;1.70;;;9.20;93.30;;;;;;5028453;28;20042;-77
2021/05/07 08:59:21;;;;;;;3.55;1.73;;;9.20;91.20;;;;;;5029825;28;20068;-75
2021/05/07 09:01:49;;;;;;;2.70;1.75;;;9.10;92.50;;;;;;5039455;28;20072;-75
2021/05/07 09:04:18;;;;;;;2.90;1.60;;;9.20;91.70;;;;;;5029608;28;20401;-74
2021/05/07 09:06:53;;;;;;;2.22;1.50;;;9.30;90.20;;;;;;5028389;28;20095;-76
2021/05/07 09:09:26;;;;;;;3.00;1.98;;;9.60;89.30;;;;;;5030543;28;20045;-75
2021/05/07 09:12:01;;;;;;;2.95;1.52;;;9.70;89.70;;;;;;5024568;28;20046;-77
2021/05/07 09:14:29;;;;;;;3.38;1.60;;;9.70;84.80;;;;;;5029797;28;20422;-76
2021/05/07 09:17:00;;;;;;;2.78;1.60;;;9.60;81.30;;;;;;5018228;28;20109;-77
2021/05/07 09:19:31;;;;;;;2.95;1.95;;;9.70;87.10;;;;;;5042621;28;20038;-77
2021/05/07 09:21:58;;;;;;;3.20;1.50;;;10.00;82.40;;;;;;5027973;28;20410;-77
2021/05/07 09:24:31;;;;;;;3.25;2.05;;;10.10;85.80;;;;;;5028759;28;20045;-76
2021/05/07 09:26:58;;;;;;;2.88;1.70;;;9.90;86.00;;;;;;5036283;28;20035;-76
2021/05/07 09:29:26;;;;;;;3.47;1.85;;;9.60;86.00;;;;;;5032057;28;20399;-75
2021/05/07 09:31:55;;;;;;;2.97;1.60;;;9.70;87.00;;;;;;5044405;28;20050;-76
2021/05/07 09:34:22;;;;;;;4.32;1.90;;;9.80;88.80;;;;;;5039951;28;20068;-77
2021/05/07 09:36:49;;;;;;;2.38;1.60;;;10.10;86.90;;;;;;5031801;28;20030;-75
2021/05/07 09:39:20;;;;;;;3.42;2.05;;;10.00;87.20;;;;;;5015945;28;20042;-75
2021/05/07 09:41:51;;;;;;;3.40;1.65;;;9.80;84.80;;;;;;5027198;28;20118;-76
2021/05/07 09:44:21;;;;;;;3.28;1.83;;;9.80;89.50;;;;;;5040265;28;20415;-75
2021/05/07 09:46:50;;;;;;;3.08;1.60;;;10.00;88.50;;;;;;5044370;28;20120;-75
2021/05/07 09:49:29;;;;;;;4.78;1.90;;;10.30;84.40;;;;;;5027287;28;20120;-74
2021/05/07 09:51:56;;;;;;;2.78;1.42;;;10.40;82.40;;;;;;5036173;28;20478;-76
2021/05/07 09:54:27;;;;;;;2.55;1.70;;;10.30;84.00;;;;;;5034228;28;20084;-74
2021/05/07 09:56:54;;;;;;;3.38;1.70;;;10.20;84.90;;;;;;5024566;28;20030;-77
2021/05/07 09:59:21;;;;;;;2.67;1.40;;;10.00;85.50;;;;;;5033574;28;20037;-75
2021/05/07 10:01:48;;;;;;;2.42;1.50;;;10.20;83.10;;;;;;5026812;28;20038;-76
2021/05/07 10:04:15;;;;;;;2.38;1.63;;;10.40;80.30;;;;;;5017497;28;20045;-77
2021/05/07 10:06:42;;;;;;;1.95;1.42;;;10.70;76.30;;;;;;5032905;28;20044;-77
2021/05/07 10:09:09;;;;;;;4.53;1.85;;;10.70;75.70;;;;;;5047934;28;20164;-76
2021/05/07 10:11:45;;;;;;;2.05;1.33;;;11.00;75.70;;;;;;5013123;28;20049;-77
2021/05/07 10:14:15;;;;;;;3.03;1.40;;;11.10;77.50;;;;;;5031667;28;20095;-76
2021/05/07 10:16:42;;;;;;;1.83;1.20;;;11.10;79.50;;;;;;5026519;28;20055;-76
2021/05/07 10:19:13;;;;;;;1.90;1.23;;;10.90;76.30;;;;;;5034009;28;20049;-76
2021/05/07 10:21:44;;;;;;;2.65;1.40;;;10.80;74.10;;;;;;5028047;28;20044;-78
2021/05/07 10:24:12;;;;;;;2.25;1.27;;;10.80;73.80;;;;;;5030530;28;20030;-77
2021/05/07 10:26:51;;;;;;;3.47;1.40;;;10.70;73.20;;;;;;5031554;28;20113;-76
2021/05/07 10:29:26;;;;;;;2.88;1.50;;;10.80;72.70;;;;;;5026839;28;20552;-76
2021/05/07 10:31:57;;;;;;;3.72;1.48;;;10.70;72.70;;;;;;5032119;28;20089;-76
2021/05/07 10:34:27;;;;;;;2.67;1.50;;;10.80;69.10;;;;;;5023839;28;20108;-76
2021/05/07 10:37:11;;;;;;;2.08;1.27;;;10.90;68.30;;;;;;5027557;28;20058;-76
2021/05/07 10:39:53;;;;;;;2.35;1.33;;;10.90;68.40;;;;;;5030762;28;20103;-76
2021/05/07 10:42:20;;;;;;;2.30;1.45;;;11.00;70.00;;;;;;5029446;28;20494;-76
2021/05/07 10:44:46;;;;;;;2.10;1.50;;;10.90;71.40;;;;;;5030272;28;20064;-75
2021/05/07 10:47:14;;;;;;;6.15;1.90;;;10.80;73.80;;;;;;5041167;28;20065;-77
2021/05/07 10:49:42;;;;;;;3.80;1.67;;;10.90;73.80;;;;;;5044828;28;20116;-77
2021/05/07 10:52:09;;;;;;;2.70;1.50;;;10.70;72.40;;;;;;5027274;28;20030;-77
2021/05/07 10:54:38;;;;;;;2.70;1.58;;;10.60;71.80;;;;;;5026727;28;20037;-77
2021/05/07 10:57:05;;;;;;;3.30;1.77;;;10.70;73.60;;;;;;5024843;28;20042;-75
2021/05/07 10:59:30;;;;;;;2.50;1.50;;;10.70;78.20;;;;;;5026007;28;20073;-76
2021/05/07 11:02:04;;;;;;;4.57;2.35;;;10.80;80.10;;;;;;5027668;28;20533;-76
2021/05/07 11:04:48;;;;;;;2.25;1.23;;;11.10;78.00;;;;;;5030945;28;20045;-77
2021/05/07 11:07:28;;;;;;;3.22;1.30;;;11.30;73.00;;;;;;5031476;28;20424;-77
2021/05/07 11:10:03;;;;;;;3.88;1.60;;;11.20;73.80;;;;;;5032053;28;20045;-77
2021/05/07 11:12:29;;;;;;;2.15;1.48;;;11.40;72.20;;;;;;5026086;28;20053;-77
2021/05/07 11:14:55;;;;;;;1.83;1.30;;;11.40;69.30;;;;;;5023963;28;20088;-76
2021/05/07 11:17:22;;;;;;;3.88;1.60;;;11.30;71.60;;;;;;5031276;28;20050;-80
2021/05/07 11:19:48;;;;;;;4.30;1.40;;;11.20;72.40;;;;;;5029165;28;20061;-77
2021/05/07 11:22:14;;;;;;;3.17;1.50;;;11.10;76.00;;;;;;5027040;28;20114;-73
2021/05/07 11:24:42;;;;;;;5.85;1.85;;;11.10;75.40;;;;;;5031743;28;20096;-75
2021/05/07 11:27:22;;;;;;;1.75;1.30;;;11.10;76.60;;;;;;5026695;28;20049;-76
2021/05/07 11:29:52;;;;;;;2.05;1.20;;;11.30;67.30;;;;;;5031195;28;20037;-76
2021/05/07 11:32:21;;;;;;;3.00;1.50;;;11.30;66.90;;;;;;5031034;28;20506;-76
2021/05/07 11:35:08;;;;;;;2.53;1.40;;;11.40;67.50;;;;;;5021298;28;20038;-75
2021/05/07 11:37:34;;;;;;;1.92;1.15;;;11.30;68.10;;;;;;5024968;28;20038;-77
2021/05/07 11:40:01;;;;;;;2.60;1.55;;;11.40;66.40;;;;;;5027589;28;20045;-75
2021/05/07 11:42:32;;;;;;;2.70;1.30;;;11.40;67.20;;;;;;5038746;28;20069;-77
2021/05/07 11:45:08;;;;;;;1.92;1.20;;;11.40;65.50;;;;;;5033391;28;20033;-75
2021/05/07 11:47:38;;;;;;;1.58;1.20;;;11.20;67.50;;;;;;5024115;28;20046;-75
2021/05/07 11:50:07;;;;;;;4.40;1.23;;;11.00;66.20;;;;;;5029737;28;20093;-76
2021/05/07 11:52:40;;;;;;;3.42;1.45;;;11.00;66.40;;;;;;5026475;28;20111;-76
2021/05/07 11:55:22;;;;;;;2.45;1.50;;;11.30;66.90;;;;;;5027032;28;20506;-76
2021/05/07 11:58:02;;;;;;;2.75;1.60;;;11.80;68.10;;;;;;5030999;28;20048;-78
2021/05/07 12:00:29;;;;;;;4.85;1.70;;;12.10;68.70;;;;;;5024105;28;20382;-77
2021/05/07 12:02:59;;;;;;;4.85;1.75;;;12.10;66.90;;;;;;5022311;28;20041;-75
2021/05/07 12:05:37;;;;;;;4.28;1.40;;;12.10;65.80;;;;;;5031380;28;20030;-76
2021/05/07 12:08:04;;;;;;;2.78;1.60;;;12.10;64.30;;;;;;5035427;28;20038;-77
2021/05/07 12:10:33;;;;;;;3.40;1.35;;;11.80;63.30;;;;;;5025823;28;20088;-76
2021/05/07 12:13:00;;;;;;;2.88;1.40;;;11.70;62.40;;;;;;5022940;28;20034;-75
2021/05/07 12:15:31;;;;;;;2.60;1.92;;;11.80;62.20;;;;;;5029988;28;20064;-78
2021/05/07 12:17:59;;;;;;;2.05;1.40;;;12.10;64.30;;;;;;5025923;28;20050;-76
2021/05/07 12:20:29;;;;;;;2.03;1.30;;;12.40;63.60;;;;;;5038136;28;20033;-78
2021/05/07 12:22:59;;;;;;;2.65;1.30;;;12.30;64.00;;;;;;5024839;28;20112;-74
2021/05/07 12:25:28;;;;;;;3.70;1.80;;;12.00;62.20;;;;;;5028199;28;20041;-76
2021/05/07 12:27:56;;;;;;;3.47;1.50;;;11.70;63.90;;;;;;5023152;28;20044;-75
2021/05/07 12:30:24;;;;;;;4.28;1.70;;;11.70;64.00;;;;;;5035661;28;20411;-76
2021/05/07 12:32:53;;;;;;;2.95;1.65;;;11.60;64.20;;;;;;5024365;28;20080;-75
2021/05/07 12:35:20;;;;;;;2.50;1.77;;;11.60;64.90;;;;;;5024039;28;20061;-75
2021/05/07 12:37:49;;;;;;;2.65;1.58;;;11.80;65.50;;;;;;5026876;28;20075;-75
2021/05/07 12:40:15;;;;;;;4.20;1.85;;;11.80;61.00;;;;;;5019272;28;20093;-76
2021/05/07 12:42:41;;;;;;;2.30;1.67;;;12.00;59.50;;;;;;5028517;28;20041;-76
2021/05/07 12:45:07;;;;;;;2.65;1.50;;;12.10;58.20;;;;;;5013603;28;20065;-76
2021/05/07 12:47:33;;;;;;;2.88;1.40;;;12.30;56.50;;;;;;5020506;28;20041;-76
2021/05/07 12:49:59;;;;;;;1.83;1.10;;;12.40;57.60;;;;;;5030679;28;20053;-76
2021/05/07 12:52:25;;;;;;;2.42;1.60;;;12.70;58.70;;;;;;5018957;28;20480;-76
2021/05/07 12:54:51;;;;;;;2.60;1.70;;;13.10;57.40;;;;;;5041140;28;20034;-76
2021/05/07 12:57:16;;;;;;;;;;;13.30;60.70;;;;;;5017333;28;20042;-79
2021/05/07 12:59:45;;;;;;;2.67;1.77;;;13.70;58.80;;;;;;5026927;28;19917;-74
2021/05/07 13:02:11;;;;;;;2.88;1.80;;;13.70;58.00;;;;;;5032557;28;20041;-75
2021/05/07 13:04:37;;;;;;;3.03;1.70;;;13.20;57.40;;;;;;5032519;28;20033;-76
2021/05/07 13:07:03;;;;;;;2.63;1.38;;;13.00;58.70;;;;;;5032720;28;20034;-77